Time;durP1;ratioP1;P1;durP2;ratioP2;P2;SDS_P1;SDS_P2;PMS_P1;PMS_P2;Temp;Humidity;BMP_temperature;BMP_pressure;BME280_temperature;BME280_humidity;BME280_pressure;Samples;Min_cycle;Max_cycle;Signal;HPM_P1;HPM_P2
2021/08/01 00:02:27;;;;;;;1.97;1.83;;;17.20;99.90;;;;;;5097626;28;20547;-82
2021/08/01 00:04:57;;;;;;;2.67;2.37;;;17.10;99.90;;;;;;5099908;28;20453;-83
2021/08/01 00:07:25;;;;;;;3.67;2.17;;;17.10;99.90;;;;;;5098209;28;20418;-82
2021/08/01 00:09:58;;;;;;;4.13;2.23;;;17.10;99.90;;;;;;5099903;28;20521;-82
2021/08/01 00:12:26;;;;;;;3.00;2.00;;;17.10;99.90;;;;;;5099340;28;20421;-82
2021/08/01 00:14:56;;;;;;;2.83;2.27;;;17.20;99.90;;;;;;5118593;28;20461;-82
2021/08/01 00:17:24;;;;;;;3.30;2.70;;;17.10;99.90;;;;;;5121765;28;20400;-82
2021/08/01 00:19:53;;;;;;;2.77;2.57;;;17.10;99.90;;;;;;5109537;28;20425;-81
2021/08/01 00:22:21;;;;;;;2.23;2.03;;;17.10;99.90;;;;;;5108959;28;20872;-82
2021/08/01 00:24:49;;;;;;;3.90;2.80;;;17.00;99.90;;;;;;5123014;28;20469;-82
2021/08/01 00:27:18;;;;;;;3.40;2.73;;;16.90;99.90;;;;;;5101237;28;20437;-82
2021/08/01 00:29:46;;;;;;;3.50;2.40;;;16.90;99.90;;;;;;5116718;28;20422;-81
2021/08/01 00:32:15;;;;;;;2.77;2.47;;;16.90;99.90;;;;;;5100863;28;20403;-81
2021/08/01 00:34:43;;;;;;;2.20;1.70;;;16.80;99.90;;;;;;5100783;28;20441;-82
2021/08/01 00:37:12;;;;;;;2.93;2.03;;;16.80;99.90;;;;;;5099340;28;20461;-82
2021/08/01 00:39:40;;;;;;;4.07;2.43;;;16.90;99.90;;;;;;5099571;28;20425;-82
2021/08/01 00:42:10;;;;;;;3.50;2.40;;;16.90;99.90;;;;;;5100170;28;20417;-81
2021/08/01 00:44:38;;;;;;;2.43;2.07;;;17.00;99.90;;;;;;5102051;28;20959;-82
2021/08/01 00:47:06;;;;;;;3.03;2.33;;;17.00;99.90;;;;;;5116009;28;20400;-82
2021/08/01 00:49:36;;;;;;;3.17;2.90;;;17.00;99.90;;;;;;5102463;28;20441;-82
2021/08/01 00:52:06;;;;;;;2.67;2.13;;;17.10;99.90;;;;;;5099218;28;20447;-81
2021/08/01 00:54:36;;;;;;;3.87;3.03;;;17.00;99.90;;;;;;5099387;28;20442;-82
2021/08/01 00:57:05;;;;;;;2.90;2.37;;;17.00;99.90;;;;;;5099329;28;20490;-83
2021/08/01 00:59:34;;;;;;;3.50;2.47;;;16.90;99.90;;;;;;5116837;28;20524;-82
2021/08/01 01:02:07;;;;;;;3.50;2.67;;;16.90;99.90;;;;;;5101686;28;20459;-82
2021/08/01 01:04:45;;;;;;;2.50;2.30;;;17.00;99.90;;;;;;5102008;28;20448;-82
2021/08/01 01:07:21;;;;;;;3.00;2.60;;;17.10;99.90;;;;;;5099938;28;20428;-82
2021/08/01 01:09:56;;;;;;;4.57;3.17;;;17.00;99.90;;;;;;5100949;28;20457;-82
2021/08/01 01:12:38;;;;;;;4.33;2.10;;;17.10;99.90;;;;;;5099756;28;20448;-82
2021/08/01 01:15:12;;;;;;;3.03;2.20;;;17.10;99.90;;;;;;5099897;28;20516;-82
2021/08/01 01:17:45;;;;;;;3.50;2.50;;;17.10;99.90;;;;;;5100128;28;20540;-82
2021/08/01 01:20:37;;;;;;;2.50;2.30;;;17.10;99.90;;;;;;5100330;28;20584;-82
2021/08/01 01:23:24;;;;;;;4.67;2.93;;;17.10;99.90;;;;;;5101170;28;20920;-82
2021/08/01 01:26:13;;;;;;;3.63;3.33;;;17.20;99.90;;;;;;5101319;28;20403;-82
2021/08/01 01:28:53;;;;;;;3.27;2.67;;;17.10;99.90;;;;;;5127756;28;20426;-80
2021/08/01 01:31:29;;;;;;;2.63;2.40;;;16.90;99.90;;;;;;5130210;28;20441;-81
2021/08/01 01:34:05;;;;;;;2.53;1.97;;;16.90;99.90;;;;;;5113390;28;20411;-81
2021/08/01 01:36:37;;;;;;;2.77;2.50;;;16.90;99.90;;;;;;5108310;28;20473;-81
2021/08/01 01:39:07;;;;;;;3.03;2.50;;;16.80;99.90;;;;;;5115263;28;20939;-82
2021/08/01 01:41:50;;;;;;;3.10;2.80;;;16.70;99.90;;;;;;5099068;28;20780;-82
2021/08/01 01:44:23;;;;;;;2.80;2.60;;;16.60;99.90;;;;;;5100499;28;20536;-81
2021/08/01 01:46:53;;;;;;;6.10;3.80;;;16.60;99.90;;;;;;5101610;28;20418;-81
2021/08/01 01:49:23;;;;;;;2.73;2.50;;;16.60;99.90;;;;;;5100346;28;20464;-82
2021/08/01 01:52:01;;;;;;;3.43;3.13;;;16.50;99.90;;;;;;5099810;28;20444;-82
2021/08/01 01:54:29;;;;;;;5.80;4.33;;;16.50;99.90;;;;;;5099825;28;20484;-82
2021/08/01 01:56:59;;;;;;;10.20;3.57;;;16.60;99.90;;;;;;5113350;28;20472;-82
2021/08/01 01:59:33;;;;;;;3.17;2.70;;;16.60;99.90;;;;;;5101914;28;20422;-82
2021/08/01 02:02:01;;;;;;;3.10;2.80;;;16.70;99.90;;;;;;5133243;28;20445;-82
2021/08/01 02:04:29;;;;;;;4.03;2.67;;;16.70;99.90;;;;;;5136087;28;20471;-83
2021/08/01 02:07:20;;;;;;;3.93;2.97;;;16.70;99.90;;;;;;5118900;28;20449;-84
2021/08/01 02:10:05;;;;;;;3.50;2.50;;;16.60;99.90;;;;;;5135713;28;20500;-82
2021/08/01 02:12:37;;;;;;;3.07;2.77;;;16.50;99.90;;;;;;5119305;28;20417;-84
2021/08/01 02:15:16;;;;;;;4.50;3.40;;;16.50;99.90;;;;;;5135795;28;20441;-81
2021/08/01 02:17:52;;;;;;;4.63;3.10;;;16.60;99.90;;;;;;5135391;28;20540;-83
2021/08/01 02:20:22;;;;;;;3.60;3.30;;;16.50;99.90;;;;;;5135697;28;20417;-83
2021/08/01 02:23:16;;;;;;;3.97;2.93;;;16.40;99.90;;;;;;5118789;28;20505;-82
2021/08/01 02:25:47;;;;;;;4.07;3.13;;;16.40;99.90;;;;;;5118121;28;20444;-82
2021/08/01 02:28:18;;;;;;;4.13;3.27;;;16.40;99.90;;;;;;5131675;28;21093;-82
2021/08/01 02:30:48;;;;;;;3.50;3.20;;;16.40;99.90;;;;;;5096903;28;20437;-82
2021/08/01 02:33:18;;;;;;;3.23;2.93;;;16.40;99.90;;;;;;5096471;28;20446;-82
2021/08/01 02:35:47;;;;;;;5.00;3.20;;;16.40;99.90;;;;;;5096274;28;20947;-82
2021/08/01 02:38:17;;;;;;;3.17;2.80;;;16.30;99.90;;;;;;5098346;28;20456;-82
2021/08/01 02:40:47;;;;;;;3.47;2.77;;;16.30;99.90;;;;;;5101532;28;20433;-81
2021/08/01 02:43:17;;;;;;;3.67;3.00;;;16.20;99.90;;;;;;5121595;28;20503;-81
2021/08/01 02:45:47;;;;;;;3.43;2.70;;;16.20;99.90;;;;;;5111427;28;20446;-82
2021/08/01 02:48:17;;;;;;;5.10;3.53;;;16.20;99.90;;;;;;5094807;28;20454;-81
2021/08/01 02:50:53;;;;;;;4.57;4.17;;;16.10;99.90;;;;;;5095526;28;20422;-81
2021/08/01 02:53:25;;;;;;;3.97;3.63;;;16.20;99.90;;;;;;5096216;28;20971;-80
2021/08/01 02:56:00;;;;;;;3.43;3.13;;;16.20;99.90;;;;;;5097459;28;20493;-81
2021/08/01 02:58:30;;;;;;;4.30;3.93;;;16.30;99.90;;;;;;5096357;28;20536;-82
2021/08/01 03:01:00;;;;;;;3.57;3.27;;;16.30;99.90;;;;;;5095826;28;20441;-81
2021/08/01 03:03:29;;;;;;;4.40;3.40;;;16.40;99.90;;;;;;5094851;28;20441;-81
2021/08/01 03:05:59;;;;;;;4.37;3.30;;;16.40;99.90;;;;;;5095010;28;20425;-81
2021/08/01 03:08:29;;;;;;;4.73;4.10;;;16.30;99.90;;;;;;5095474;28;20427;-81
2021/08/01 03:10:57;;;;;;;4.70;4.30;;;16.40;99.90;;;;;;5094530;28;20442;-82
2021/08/01 03:13:26;;;;;;;3.43;3.17;;;16.60;99.90;;;;;;5111819;28;20899;-81
2021/08/01 03:15:55;;;;;;;4.00;3.67;;;16.40;99.90;;;;;;5105405;28;20425;-82
2021/08/01 03:18:23;;;;;;;4.20;3.80;;;16.30;99.90;;;;;;5117783;28;20506;-83
2021/08/01 03:20:52;;;;;;;4.23;3.83;;;16.30;99.90;;;;;;5133996;28;20418;-82
2021/08/01 03:23:24;;;;;;;2.93;2.70;;;16.30;99.90;;;;;;5117971;28;20492;-82
2021/08/01 03:26:20;;;;;;;10.80;6.60;;;16.30;99.90;;;;;;5117278;28;20430;-82
2021/08/01 03:28:48;;;;;;;3.27;2.97;;;16.30;99.90;;;;;;5117418;28;20516;-82
2021/08/01 03:31:17;;;;;;;5.13;3.63;;;16.40;99.90;;;;;;5117240;28;20479;-82
2021/08/01 03:33:48;;;;;;;4.80;3.20;;;16.50;99.90;;;;;;5099561;28;20790;-81
2021/08/01 03:36:19;;;;;;;3.73;3.43;;;16.30;99.90;;;;;;5099427;28;20474;-81
2021/08/01 03:39:20;;;;;;;3.70;3.40;;;16.40;99.90;;;;;;5064361;28;20421;-82
2021/08/01 03:42:00;;;;;;;2.60;2.40;;;16.30;99.90;;;;;;5097290;28;21041;-81
2021/08/01 03:44:31;;;;;;;3.60;3.30;;;16.30;99.90;;;;;;5098101;28;20452;-82
2021/08/01 03:47:00;;;;;;;3.03;2.73;;;16.40;99.90;;;;;;5098796;28;20417;-82
2021/08/01 03:49:28;;;;;;;3.30;3.00;;;16.60;99.90;;;;;;5110175;28;20424;-81
2021/08/01 03:51:57;;;;;;;3.27;2.80;;;16.60;99.90;;;;;;5127880;28;20433;-81
2021/08/01 03:54:25;;;;;;;3.43;3.10;;;16.60;99.90;;;;;;5111946;28;20449;-82
2021/08/01 03:56:53;;;;;;;4.10;3.00;;;17.10;99.90;;;;;;5121644;28;20441;-82
2021/08/01 03:59:22;;;;;;;4.70;3.50;;;17.40;99.90;;;;;;5096942;28;20417;-81
2021/08/01 04:01:51;;;;;;;3.43;2.40;;;17.50;99.90;;;;;;5096324;28;20440;-82
2021/08/01 04:04:19;;;;;;;5.37;3.20;;;18.00;99.90;;;;;;5114135;28;20465;-81
2021/08/01 04:06:47;;;;;;;3.27;3.07;;;18.60;99.90;;;;;;5096606;28;20459;-81
2021/08/01 04:09:15;;;;;;;2.77;2.57;;;19.40;99.90;;;;;;5097176;28;20421;-82
2021/08/01 04:11:44;;;;;;;3.73;2.63;;;20.10;99.90;;;;;;5113208;28;20466;-82
2021/08/01 04:14:13;;;;;;;3.00;2.80;;;20.70;99.90;;;;;;5097220;28;20858;-82
2021/08/01 04:16:42;;;;;;;2.63;2.43;;;20.80;99.90;;;;;;5096813;28;20439;-82
2021/08/01 04:19:13;;;;;;;5.63;3.37;;;20.50;99.90;;;;;;5096772;28;20459;-81
2021/08/01 04:21:41;;;;;;;3.70;3.23;;;19.80;99.90;;;;;;5095981;28;20520;-81
2021/08/01 04:24:10;;;;;;;3.90;3.10;;;19.00;99.90;;;;;;5095772;28;20551;-82
2021/08/01 04:26:38;;;;;;;3.03;2.73;;;18.60;99.90;;;;;;5112158;28;20460;-80
2021/08/01 04:29:07;;;;;;;3.87;3.03;;;18.10;99.90;;;;;;5096430;28;20422;-81
2021/08/01 04:31:35;;;;;;;3.57;3.27;;;17.70;99.90;;;;;;5096587;28;20425;-81
2021/08/01 04:34:04;;;;;;;3.53;3.20;;;17.50;99.90;;;;;;5095773;28;20995;-81
2021/08/01 04:36:33;;;;;;;5.30;3.50;;;17.30;99.90;;;;;;5096705;28;20481;-81
2021/08/01 04:39:00;;;;;;;3.67;2.77;;;17.30;99.90;;;;;;5112955;28;20424;-81
2021/08/01 04:41:29;;;;;;;3.13;2.83;;;17.20;99.90;;;;;;5095979;28;20544;-81
2021/08/01 04:43:57;;;;;;;4.00;3.17;;;17.30;99.90;;;;;;5096557;28;20855;-80
2021/08/01 04:46:26;;;;;;;4.50;3.50;;;17.30;99.90;;;;;;5112440;28;20511;-81
2021/08/01 04:48:54;;;;;;;5.90;4.00;;;17.20;99.90;;;;;;5097302;28;20409;-81
2021/08/01 04:51:23;;;;;;;3.57;2.70;;;17.30;99.90;;;;;;5095777;28;20421;-80
2021/08/01 04:53:52;;;;;;;3.70;3.40;;;17.40;99.90;;;;;;5097439;28;20495;-81
2021/08/01 04:56:20;;;;;;;3.80;3.50;;;17.50;99.90;;;;;;5095326;28;20433;-81
2021/08/01 04:58:48;;;;;;;3.17;2.73;;;17.60;99.90;;;;;;5095233;28;20503;-80
2021/08/01 05:01:18;;;;;;;5.77;3.30;;;17.70;99.90;;;;;;5099349;28;20743;-82
2021/08/01 05:03:46;;;;;;;3.87;2.93;;;17.50;99.90;;;;;;5099517;28;20564;-83
2021/08/01 05:06:14;;;;;;;2.70;2.50;;;17.70;99.90;;;;;;5101253;28;20842;-82
2021/08/01 05:08:44;;;;;;;5.73;3.10;;;17.70;99.90;;;;;;5099691;28;20445;-82
2021/08/01 05:11:12;;;;;;;3.57;3.20;;;17.60;99.90;;;;;;5100905;28;20425;-81
2021/08/01 05:13:40;;;;;;;5.13;3.87;;;17.70;99.90;;;;;;5101266;28;20437;-81
2021/08/01 05:16:08;;;;;;;4.20;3.73;;;17.70;99.90;;;;;;5100830;28;20417;-81
2021/08/01 05:18:36;;;;;;;5.63;2.90;;;17.70;99.90;;;;;;5100285;28;20495;-81
2021/08/01 05:21:04;;;;;;;4.37;3.23;;;18.00;99.90;;;;;;5100042;28;20965;-81
2021/08/01 05:23:36;;;;;;;4.73;3.20;;;18.20;99.90;;;;;;5099241;28;20449;-81
2021/08/01 05:26:06;;;;;;;3.00;2.80;;;18.40;99.90;;;;;;5101657;28;20389;-81
2021/08/01 05:28:34;;;;;;;4.37;3.20;;;18.60;99.90;;;;;;5102446;28;20893;-81
2021/08/01 05:31:02;;;;;;;5.57;3.00;;;18.60;99.90;;;;;;5103321;28;20421;-82
2021/08/01 05:33:30;;;;;;;4.33;3.30;;;18.60;99.90;;;;;;5122178;28;20825;-82
2021/08/01 05:35:58;;;;;;;3.80;3.03;;;18.70;99.90;;;;;;5101822;28;20554;-82
2021/08/01 05:38:26;;;;;;;3.80;3.47;;;18.40;99.90;;;;;;5101008;28;20440;-82
2021/08/01 05:40:54;;;;;;;3.67;3.30;;;18.50;99.90;;;;;;5102490;28;20416;-82
2021/08/01 05:43:23;;;;;;;3.97;3.67;;;18.30;99.90;;;;;;5102040;28;20436;-81
2021/08/01 05:45:52;;;;;;;5.50;3.20;;;18.20;99.90;;;;;;5098794;28;20490;-82
2021/08/01 05:48:20;;;;;;;3.40;3.10;;;18.20;99.90;;;;;;5100503;28;20413;-82
2021/08/01 05:50:48;;;;;;;4.00;3.23;;;18.10;99.90;;;;;;5100168;28;20400;-82
2021/08/01 05:53:20;;;;;;;3.53;3.23;;;18.20;99.90;;;;;;5102133;28;20408;-82
2021/08/01 05:55:49;;;;;;;5.70;4.03;;;18.10;99.90;;;;;;5099999;28;20795;-81
2021/08/01 05:58:17;;;;;;;7.13;3.77;;;18.10;99.90;;;;;;5105750;28;20449;-80
2021/08/01 06:00:46;;;;;;;7.27;4.27;;;18.20;99.90;;;;;;5104119;28;20809;-81
2021/08/01 06:03:15;;;;;;;3.70;3.40;;;18.20;99.90;;;;;;5103930;28;20430;-81
2021/08/01 06:05:43;;;;;;;3.30;3.00;;;18.40;99.90;;;;;;5109885;28;20438;-81
2021/08/01 06:08:12;;;;;;;4.30;3.10;;;18.50;99.90;;;;;;5111347;28;20407;-81
2021/08/01 06:10:40;;;;;;;8.83;3.17;;;18.70;99.90;;;;;;5110931;28;20440;-79
2021/08/01 06:13:08;;;;;;;4.10;3.70;;;18.70;99.90;;;;;;5106586;28;20433;-80
2021/08/01 06:15:36;;;;;;;4.23;3.87;;;18.50;99.90;;;;;;5101649;28;20408;-81
2021/08/01 06:18:06;;;;;;;3.97;3.50;;;18.40;99.90;;;;;;5103583;28;20410;-81
2021/08/01 06:20:34;;;;;;;6.17;3.60;;;18.40;99.90;;;;;;5106917;28;20463;-81
2021/08/01 06:23:02;;;;;;;3.23;3.03;;;18.50;99.90;;;;;;5110545;28;20419;-81
2021/08/01 06:25:31;;;;;;;3.93;3.40;;;18.70;99.90;;;;;;5110512;28;20460;-81
2021/08/01 06:27:59;;;;;;;4.60;3.33;;;18.70;99.90;;;;;;5108944;28;20416;-81
2021/08/01 06:30:27;;;;;;;4.07;3.30;;;18.70;99.90;;;;;;5101321;28;20429;-81
2021/08/01 06:32:55;;;;;;;5.17;3.17;;;19.00;99.90;;;;;;5099722;28;20487;-81
2021/08/01 06:35:25;;;;;;;3.20;2.90;;;19.10;99.90;;;;;;5114610;28;20423;-81
2021/08/01 06:37:53;;;;;;;2.80;2.60;;;19.10;99.90;;;;;;5100357;28;20811;-81
2021/08/01 06:40:21;;;;;;;2.47;2.13;;;19.20;99.90;;;;;;5098130;28;20444;-80
2021/08/01 06:42:49;;;;;;;3.93;2.90;;;19.10;99.90;;;;;;5115547;28;20934;-81
2021/08/01 06:45:17;;;;;;;2.40;2.10;;;19.30;99.90;;;;;;5099573;28;20420;-83
2021/08/01 06:47:46;;;;;;;2.93;2.40;;;19.40;99.90;;;;;;5100507;28;20457;-82
2021/08/01 06:50:14;;;;;;;2.37;2.17;;;19.50;99.90;;;;;;5099945;28;20527;-82
2021/08/01 06:52:43;;;;;;;3.10;2.80;;;19.50;99.90;;;;;;5111543;28;20396;-82
2021/08/01 06:55:11;;;;;;;2.90;2.40;;;19.50;99.90;;;;;;5118554;28;20428;-82
2021/08/01 06:57:39;;;;;;;2.67;2.47;;;19.80;99.90;;;;;;5117902;28;20751;-83
2021/08/01 07:00:08;;;;;;;2.90;2.37;;;20.20;99.90;;;;;;5118403;28;20419;-82
2021/08/01 07:02:36;;;;;;;3.00;2.70;;;20.20;99.90;;;;;;5117442;28;20403;-82
2021/08/01 07:05:06;;;;;;;2.20;2.00;;;20.20;99.90;;;;;;5117478;28;20536;-82
2021/08/01 07:07:34;;;;;;;2.90;2.60;;;20.30;99.90;;;;;;5117178;28;20396;-82
2021/08/01 07:10:04;;;;;;;2.83;2.30;;;20.40;99.90;;;;;;5117910;28;20443;-81
2021/08/01 07:12:32;;;;;;;2.90;2.70;;;20.30;99.90;;;;;;5116782;28;20471;-82
2021/08/01 07:15:00;;;;;;;3.30;2.57;;;20.30;99.90;;;;;;5116286;28;20435;-81
2021/08/01 07:17:29;;;;;;;3.53;2.80;;;20.40;99.90;;;;;;5132730;28;20412;-82
2021/08/01 07:19:57;;;;;;;2.57;2.10;;;20.10;99.90;;;;;;5109825;28;20446;-82
2021/08/01 07:22:25;;;;;;;2.70;2.33;;;20.20;99.90;;;;;;5106156;28;20407;-82
2021/08/01 07:24:54;;;;;;;2.40;2.17;;;20.10;99.90;;;;;;5103313;28;20471;-82
2021/08/01 07:27:23;;;;;;;3.80;3.40;;;20.20;99.90;;;;;;5103897;28;20430;-82
2021/08/01 07:29:51;;;;;;;3.33;3.00;;;20.10;99.90;;;;;;5102267;28;20426;-83
2021/08/01 07:32:19;;;;;;;3.40;2.67;;;20.00;99.90;;;;;;5104334;28;20418;-81
2021/08/01 07:34:48;;;;;;;2.50;2.30;;;19.80;99.90;;;;;;5104392;28;20499;-81
2021/08/01 07:37:16;;;;;;;3.73;2.90;;;20.00;99.90;;;;;;5103082;28;20801;-82
2021/08/01 07:39:45;;;;;;;3.10;2.80;;;20.10;99.90;;;;;;5100527;28;20484;-82
2021/08/01 07:42:14;;;;;;;4.80;2.70;;;20.20;99.90;;;;;;5098029;28;20400;-82
2021/08/01 07:44:47;;;;;;;3.37;3.07;;;20.10;99.90;;;;;;5098297;28;20416;-82
2021/08/01 07:47:17;;;;;;;3.07;2.50;;;20.10;99.90;;;;;;5097824;28;20476;-82
2021/08/01 07:49:46;;;;;;;2.90;2.63;;;20.60;99.90;;;;;;5098375;28;20433;-82
2021/08/01 07:52:15;;;;;;;3.40;3.00;;;20.90;99.90;;;;;;5097972;28;20426;-82
2021/08/01 07:54:43;;;;;;;3.33;3.03;;;21.10;99.90;;;;;;5098457;28;20412;-82
2021/08/01 07:57:23;;;;;;;3.30;2.60;;;21.20;99.90;;;;;;5102502;28;20410;-82
2021/08/01 07:59:53;;;;;;;3.53;3.10;;;20.90;99.90;;;;;;5097553;28;20465;-82
2021/08/01 08:02:22;;;;;;;4.70;2.80;;;20.40;99.90;;;;;;5096347;28;20986;-82
2021/08/01 08:04:51;;;;;;;3.67;3.30;;;20.70;99.90;;;;;;5098538;28;20825;-82
2021/08/01 08:07:19;;;;;;;7.43;3.20;;;20.30;99.90;;;;;;5097845;28;20432;-82
2021/08/01 08:09:49;;;;;;;3.70;3.30;;;20.10;99.90;;;;;;5096254;28;20445;-82
2021/08/01 08:12:17;;;;;;;3.50;2.60;;;20.10;99.90;;;;;;5097420;28;20397;-82
2021/08/01 08:14:46;;;;;;;3.90;3.53;;;20.20;99.90;;;;;;5114090;28;20423;-82
2021/08/01 08:17:15;;;;;;;2.67;2.43;;;20.50;99.90;;;;;;5097327;28;20397;-83
2021/08/01 08:19:43;;;;;;;2.67;2.47;;;20.80;99.90;;;;;;5100019;28;20491;-81
2021/08/01 08:22:13;;;;;;;3.10;2.80;;;21.00;99.90;;;;;;5103597;28;20392;-81
2021/08/01 08:24:42;;;;;;;3.80;2.97;;;21.20;99.90;;;;;;5106394;28;20432;-81
2021/08/01 08:27:10;;;;;;;4.83;3.17;;;21.30;99.90;;;;;;5106785;28;20471;-81
2021/08/01 08:29:38;;;;;;;4.37;3.30;;;21.60;99.90;;;;;;5107122;28;20422;-81
2021/08/01 08:32:07;;;;;;;3.40;3.00;;;21.60;99.90;;;;;;5123914;28;21038;-81
2021/08/01 08:34:36;;;;;;;4.00;2.93;;;21.80;99.90;;;;;;5107420;28;20460;-81
2021/08/01 08:37:04;;;;;;;3.40;3.07;;;22.00;99.90;;;;;;5123934;28;20399;-81
2021/08/01 08:39:32;;;;;;;2.70;2.50;;;22.20;99.90;;;;;;5107308;28;20452;-81
2021/08/01 08:42:02;;;;;;;4.23;2.77;;;22.30;99.90;;;;;;5110363;28;20441;-82
2021/08/01 08:44:30;;;;;;;3.50;2.57;;;22.30;99.90;;;;;;5106437;28;20416;-80
2021/08/01 08:46:58;;;;;;;4.40;2.70;;;22.10;99.90;;;;;;5107033;28;20392;-82
2021/08/01 08:49:29;;;;;;;2.97;2.67;;;22.20;99.90;;;;;;5108119;28;20403;-82
2021/08/01 08:51:59;;;;;;;5.13;2.90;;;22.00;99.90;;;;;;5119859;28;20432;-82
2021/08/01 08:54:36;;;;;;;4.97;3.20;;;22.10;99.90;;;;;;5102093;28;20426;-82
2021/08/01 08:57:15;;;;;;;4.53;3.40;;;22.30;99.90;;;;;;5100760;28;20426;-82
2021/08/01 08:59:44;;;;;;;2.77;2.53;;;22.70;99.90;;;;;;5115551;28;20426;-82
2021/08/01 09:02:13;;;;;;;5.13;2.90;;;23.10;99.90;;;;;;5118983;28;20923;-82
2021/08/01 09:04:43;;;;;;;5.20;3.00;;;23.00;99.90;;;;;;5119219;28;20414;-82
2021/08/01 09:07:12;;;;;;;3.60;3.10;;;23.00;99.90;;;;;;5119841;28;20455;-82
2021/08/01 09:09:41;;;;;;;3.70;2.87;;;22.80;99.90;;;;;;5119577;28;20437;-82
2021/08/01 09:12:09;;;;;;;3.93;3.53;;;22.80;99.90;;;;;;5119388;28;20496;-83
2021/08/01 09:14:37;;;;;;;5.07;3.93;;;22.60;99.90;;;;;;5119698;28;20435;-81
2021/08/01 09:17:05;;;;;;;3.67;3.37;;;22.80;99.90;;;;;;5119603;28;20409;-81
2021/08/01 09:19:36;;;;;;;3.63;3.30;;;23.00;99.90;;;;;;5119504;28;20388;-81
2021/08/01 09:22:15;;;;;;;2.33;2.13;;;22.90;99.90;;;;;;5119580;28;20390;-80
2021/08/01 09:24:45;;;;;;;3.47;2.50;;;23.10;99.90;;;;;;5103221;28;20460;-82
2021/08/01 09:27:28;;;;;;;3.60;3.07;;;23.50;99.90;;;;;;5099904;28;20418;-81
2021/08/01 09:29:56;;;;;;;3.30;3.00;;;23.70;99.90;;;;;;5103641;28;20505;-83
2021/08/01 09:32:25;;;;;;;3.10;2.80;;;23.60;99.90;;;;;;5101916;28;20440;-81
2021/08/01 09:34:53;;;;;;;2.80;2.60;;;23.70;99.90;;;;;;5101479;28;20467;-81
2021/08/01 09:37:34;;;;;;;3.77;3.43;;;23.40;99.90;;;;;;5098747;28;20475;-81
2021/08/01 09:40:08;;;;;;;3.63;3.37;;;23.20;99.90;;;;;;5100479;28;20478;-82
2021/08/01 09:42:41;;;;;;;3.83;2.60;;;23.00;99.90;;;;;;5100771;28;20696;-81
2021/08/01 09:45:18;;;;;;;2.73;2.43;;;23.00;99.90;;;;;;5099279;28;20450;-82
2021/08/01 09:47:47;;;;;;;3.20;2.90;;;23.00;99.90;;;;;;5097367;28;20414;-81
2021/08/01 09:50:16;;;;;;;3.37;2.80;;;22.80;99.90;;;;;;5099002;28;20905;-82
2021/08/01 09:52:46;;;;;;;3.70;2.87;;;22.70;99.90;;;;;;5098389;28;20429;-81
2021/08/01 09:55:19;;;;;;;3.53;3.20;;;22.70;99.90;;;;;;5097931;28;20443;-82
2021/08/01 09:57:52;;;;;;;3.77;2.87;;;23.00;99.90;;;;;;5099549;28;20400;-81
2021/08/01 10:00:23;;;;;;;3.50;2.87;;;23.00;99.90;;;;;;5098129;28;20517;-82
2021/08/01 10:02:51;;;;;;;5.83;2.93;;;23.00;99.90;;;;;;5099512;28;20376;-82
2021/08/01 10:05:21;;;;;;;3.60;2.40;;;22.70;99.90;;;;;;5116866;28;20974;-82
2021/08/01 10:07:52;;;;;;;2.40;2.20;;;22.30;99.90;;;;;;5097973;28;20411;-82
2021/08/01 10:10:22;;;;;;;3.03;2.73;;;22.40;99.90;;;;;;5098302;28;20951;-82
2021/08/01 10:12:52;;;;;;;3.50;2.60;;;22.60;99.90;;;;;;5100042;28;20514;-83
2021/08/01 10:15:21;;;;;;;4.43;3.10;;;22.70;99.90;;;;;;5099824;28;20975;-83
2021/08/01 10:17:49;;;;;;;2.97;2.77;;;22.60;99.90;;;;;;5102424;28;20420;-85
2021/08/01 10:20:17;;;;;;;3.93;3.10;;;22.40;99.90;;;;;;5102000;28;20416;-83
2021/08/01 10:22:46;;;;;;;3.67;3.03;;;22.50;99.90;;;;;;5110598;28;20385;-83
2021/08/01 10:25:21;;;;;;;2.70;2.50;;;22.70;99.90;;;;;;5107490;28;20450;-83
2021/08/01 10:27:54;;;;;;;3.27;2.97;;;22.90;99.90;;;;;;5108252;28;20409;-81
2021/08/01 10:30:35;;;;;;;2.70;2.50;;;23.00;99.90;;;;;;5102266;28;20503;-81
2021/08/01 10:33:19;;;;;;;4.87;3.53;;;23.00;99.90;;;;;;5111779;28;20431;-81
2021/08/01 10:36:09;;;;;;;4.30;3.90;;;22.60;99.90;;;;;;5134550;28;20388;-80
2021/08/01 10:39:18;;;;;;;;;;;;;;;;;;;;;
2021/08/01 10:43:01;;;;;;;3.43;2.50;;;22.40;99.90;;;;;;5083745;28;20472;-80
2021/08/01 10:45:35;;;;;;;3.00;2.73;;;22.30;99.90;;;;;;5117572;28;20443;-80
2021/08/01 10:48:41;;;;;;;3.90;2.83;;;22.50;99.90;;;;;;5115738;28;20438;-81
2021/08/01 10:51:40;;;;;;;3.13;2.43;;;22.70;99.90;;;;;;5102962;28;20408;-81
2021/08/01 10:54:38;;;;;;;2.40;2.20;;;23.10;99.90;;;;;;5104566;28;20421;-80
2021/08/01 10:57:47;;;;;;;2.97;2.67;;;23.30;99.90;;;;;;5115470;28;20431;-81
2021/08/01 11:04:37;;;;;;;4.07;3.40;;;23.30;99.90;;;;;;5067325;22;20503;-71
2021/08/01 11:07:05;;;;;;;3.17;2.87;;;22.70;99.90;;;;;;5054070;28;20498;-72
2021/08/01 11:09:33;;;;;;;4.83;2.90;;;22.30;99.90;;;;;;5050215;28;20398;-71
2021/08/01 11:12:30;;;;;;;4.80;2.57;;;22.00;99.90;;;;;;5049530;28;20449;-72
2021/08/01 11:14:58;;;;;;;4.17;3.33;;;22.20;99.90;;;;;;5050020;28;20862;-71
2021/08/01 11:17:59;;;;;;;2.93;2.63;;;22.40;99.90;;;;;;5050530;28;20402;-72
2021/08/01 11:20:55;;;;;;;2.97;2.67;;;22.50;99.90;;;;;;5047176;28;20433;-70
2021/08/01 11:24:05;;;;;;;3.47;2.60;;;23.00;99.90;;;;;;5047434;28;20437;-71
2021/08/01 11:26:35;;;;;;;3.00;2.67;;;23.50;99.90;;;;;;5047039;28;20531;-73
2021/08/01 11:29:08;;;;;;;3.43;2.27;;;23.80;99.90;;;;;;5050367;28;20778;-71
2021/08/01 11:31:37;;;;;;;3.60;2.83;;;23.60;99.90;;;;;;5049789;28;20417;-72
2021/08/01 11:34:20;;;;;;;2.90;2.03;;;23.70;99.90;;;;;;5049455;28;20863;-76
2021/08/01 11:37:11;;;;;;;3.67;2.07;;;23.60;99.90;;;;;;5050236;28;20475;-73
2021/08/01 11:39:51;;;;;;;2.53;2.33;;;23.80;99.90;;;;;;5050279;28;20431;-71
2021/08/01 11:42:23;;;;;;;2.80;2.47;;;24.00;99.90;;;;;;5050305;28;20444;-72
2021/08/01 11:45:02;;;;;;;2.10;1.80;;;24.10;99.90;;;;;;5050663;28;20421;-73
2021/08/01 11:47:42;;;;;;;2.80;2.60;;;24.30;99.90;;;;;;5050045;28;20399;-72
2021/08/01 11:50:11;;;;;;;2.77;2.57;;;24.50;99.90;;;;;;5048398;28;20649;-72
2021/08/01 11:52:43;;;;;;;2.17;1.90;;;24.20;99.90;;;;;;5049869;28;20426;-69
2021/08/01 11:55:16;;;;;;;2.50;2.30;;;24.10;99.90;;;;;;5049191;28;20402;-70
2021/08/01 11:57:46;;;;;;;3.40;2.43;;;24.10;99.90;;;;;;5049125;28;20424;-71
2021/08/01 12:00:15;;;;;;;2.30;2.10;;;23.80;99.90;;;;;;5049610;28;20970;-71
2021/08/01 12:02:56;;;;;;;3.83;2.50;;;23.90;99.90;;;;;;5049488;28;20459;-72
2021/08/01 12:05:41;;;;;;;3.53;2.23;;;23.90;99.90;;;;;;5048003;28;20446;-73
2021/08/01 12:08:29;;;;;;;2.83;2.53;;;23.80;99.90;;;;;;5049810;28;20410;-72
2021/08/01 12:11:07;;;;;;;2.90;2.43;;;24.00;99.90;;;;;;5048720;28;20806;-72
2021/08/01 12:13:35;;;;;;;2.67;2.30;;;24.10;99.90;;;;;;5049283;28;20401;-71
2021/08/01 12:16:14;;;;;;;4.00;1.63;;;24.20;99.90;;;;;;5049129;28;20390;-71
2021/08/01 12:18:43;;;;;;;2.30;2.10;;;24.60;99.90;;;;;;5049607;28;21019;-73
2021/08/01 12:21:29;;;;;;;4.90;2.03;;;24.40;99.90;;;;;;5049073;28;20490;-73
2021/08/01 12:23:59;;;;;;;2.37;2.00;;;24.60;99.90;;;;;;5049566;28;20451;-72
2021/08/01 12:26:38;;;;;;;2.67;2.17;;;24.60;99.90;;;;;;5049229;28;20757;-72
2021/08/01 12:29:06;;;;;;;2.73;2.07;;;24.70;99.90;;;;;;5050176;28;20419;-73
2021/08/01 12:31:34;;;;;;;3.40;2.70;;;25.00;99.90;;;;;;5050117;28;20411;-71
2021/08/01 12:34:03;;;;;;;3.10;2.20;;;25.00;99.90;;;;;;5050050;28;20848;-70
2021/08/01 12:36:31;;;;;;;2.53;2.10;;;24.60;99.90;;;;;;5049662;28;20810;-73
2021/08/01 12:39:06;;;;;;;2.50;2.20;;;23.90;99.90;;;;;;5049880;28;20568;-73
2021/08/01 12:41:36;;;;;;;5.23;2.30;;;24.00;99.90;;;;;;5051454;28;20988;-71
2021/08/01 12:44:13;;;;;;;3.77;2.27;;;24.30;99.90;;;;;;5062502;28;20420;-73
2021/08/01 12:46:41;;;;;;;3.83;2.87;;;24.80;99.90;;;;;;5062528;28;20405;-72
2021/08/01 12:49:10;;;;;;;2.20;1.80;;;25.00;99.90;;;;;;5061199;28;20394;-73
2021/08/01 12:51:45;;;;;;;3.27;2.63;;;25.10;99.90;;;;;;5062937;28;20459;-72
2021/08/01 12:54:17;;;;;;;6.10;2.50;;;25.30;99.90;;;;;;5063508;28;20425;-71
2021/08/01 12:57:06;;;;;;;2.60;2.10;;;25.60;99.90;;;;;;5062247;28;20411;-74
2021/08/01 12:59:35;;;;;;;2.30;2.10;;;25.40;99.90;;;;;;5063204;28;20389;-73
2021/08/01 13:02:04;;;;;;;8.20;3.87;;;25.40;99.90;;;;;;5060336;28;20459;-69
2021/08/01 13:04:40;;;;;;;2.27;2.07;;;25.60;99.90;;;;;;5060051;28;20450;-72
2021/08/01 13:07:09;;;;;;;2.60;2.13;;;25.60;99.90;;;;;;5056360;28;20984;-71
2021/08/01 13:09:39;;;;;;;1.87;1.77;;;25.40;99.90;;;;;;5053303;28;20400;-68
2021/08/01 13:12:16;;;;;;;4.53;2.13;;;25.20;99.90;;;;;;5050908;28;20473;-67
2021/08/01 13:14:44;;;;;;;3.47;3.10;;;25.00;99.90;;;;;;5050900;28;20505;-70
2021/08/01 13:17:14;;;;;;;4.00;3.63;;;24.60;99.90;;;;;;5051228;28;20815;-66
2021/08/01 13:19:43;;;;;;;3.13;2.83;;;24.60;99.90;;;;;;5049275;28;20886;-70